sensor_id;sensor_type;location;lat;lon;timestamp;temperature;humidity
62154;DHT22;48140;45.486;9.226;2023-02-26T00:00:38;11.10;99.80
62154;DHT22;48140;45.486;9.226;2023-02-26T00:03:03;11.00;99.90
62154;DHT22;48140;45.486;9.226;2023-02-26T00:05:29;11.10;99.90
62154;DHT22;48140;45.486;9.226;2023-02-26T00:07:55;11.10;99.90
62154;DHT22;48140;45.486;9.226;2023-02-26T00:10:20;11.00;99.90
62154;DHT22;48140;45.486;9.226;2023-02-26T00:12:46;10.90;99.90
62154;DHT22;48140;45.486;9.226;2023-02-26T00:15:13;10.90;99.90
62154;DHT22;48140;45.486;9.226;2023-02-26T00:17:51;10.90;99.60
62154;DHT22;48140;45.486;9.226;2023-02-26T00:20:19;10.90;99.70
62154;DHT22;48140;45.486;9.226;2023-02-26T00:22:45;10.90;99.90
62154;DHT22;48140;45.486;9.226;2023-02-26T00:25:11;10.90;99.90
62154;DHT22;48140;45.486;9.226;2023-02-26T00:27:37;10.80;99.90
62154;DHT22;48140;45.486;9.226;2023-02-26T00:30:07;10.80;99.90
62154;DHT22;48140;45.486;9.226;2023-02-26T00:32:34;10.80;99.90
62154;DHT22;48140;45.486;9.226;2023-02-26T00:35:00;10.70;99.90
62154;DHT22;48140;45.486;9.226;2023-02-26T00:37:58;10.70;99.90
62154;DHT22;48140;45.486;9.226;2023-02-26T00:40:43;10.70;99.90
62154;DHT22;48140;45.486;9.226;2023-02-26T00:46:01;10.60;99.90
62154;DHT22;48140;45.486;9.226;2023-02-26T00:51:52;10.60;99.70
62154;DHT22;48140;45.486;9.226;2023-02-26T00:54:23;10.60;99.60
62154;DHT22;48140;45.486;9.226;2023-02-26T00:56:51;10.60;99.50
62154;DHT22;48140;45.486;9.226;2023-02-26T00:59:18;10.60;99.60
62154;DHT22;48140;45.486;9.226;2023-02-26T01:01:44;10.50;99.40
62154;DHT22;48140;45.486;9.226;2023-02-26T01:04:11;10.50;99.40
62154;DHT22;48140;45.486;9.226;2023-02-26T01:06:42;10.40;99.90
62154;DHT22;48140;45.486;9.226;2023-02-26T01:11:46;10.30;99.70
62154;DHT22;48140;45.486;9.226;2023-02-26T01:14:12;10.30;99.90
62154;DHT22;48140;45.486;9.226;2023-02-26T01:19:59;10.20;99.90
62154;DHT22;48140;45.486;9.226;2023-02-26T01:22:32;10.30;99.90
62154;DHT22;48140;45.486;9.226;2023-02-26T01:25:09;10.20;99.80
62154;DHT22;48140;45.486;9.226;2023-02-26T01:27:35;10.20;99.90
62154;DHT22;48140;45.486;9.226;2023-02-26T01:30:04;10.10;99.90
62154;DHT22;48140;45.486;9.226;2023-02-26T01:32:47;10.10;99.90
62154;DHT22;48140;45.486;9.226;2023-02-26T01:46:58;9.90;99.90
62154;DHT22;48140;45.486;9.226;2023-02-26T01:49:26;9.90;99.90
62154;DHT22;48140;45.486;9.226;2023-02-26T01:51:52;9.80;99.90
62154;DHT22;48140;45.486;9.226;2023-02-26T01:54:23;9.80;99.90
62154;DHT22;48140;45.486;9.226;2023-02-26T01:56:55;9.80;99.90
62154;DHT22;48140;45.486;9.226;2023-02-26T01:59:21;9.60;99.90
62154;DHT22;48140;45.486;9.226;2023-02-26T02:01:53;9.70;99.90
62154;DHT22;48140;45.486;9.226;2023-02-26T02:04:21;9.60;99.90
62154;DHT22;48140;45.486;9.226;2023-02-26T02:06:47;9.60;99.90
62154;DHT22;48140;45.486;9.226;2023-02-26T02:09:13;9.60;99.90
62154;DHT22;48140;45.486;9.226;2023-02-26T02:14:45;9.50;99.90
62154;DHT22;48140;45.486;9.226;2023-02-26T02:23:21;9.50;99.90
62154;DHT22;48140;45.486;9.226;2023-02-26T02:28:50;9.50;99.90
62154;DHT22;48140;45.486;9.226;2023-02-26T02:31:34;9.40;99.90
62154;DHT22;48140;45.486;9.226;2023-02-26T02:34:02;9.30;99.90
62154;DHT22;48140;45.486;9.226;2023-02-26T02:36:47;9.40;99.90
62154;DHT22;48140;45.486;9.226;2023-02-26T02:39:24;9.40;99.90
62154;DHT22;48140;45.486;9.226;2023-02-26T02:42:02;9.40;99.90
62154;DHT22;48140;45.486;9.226;2023-02-26T02:44:31;9.40;99.90
62154;DHT22;48140;45.486;9.226;2023-02-26T02:47:00;9.40;99.90
62154;DHT22;48140;45.486;9.226;2023-02-26T02:49:34;9.30;99.90
62154;DHT22;48140;45.486;9.226;2023-02-26T02:52:37;9.30;99.90
62154;DHT22;48140;45.486;9.226;2023-02-26T02:55:12;9.30;99.90
62154;DHT22;48140;45.486;9.226;2023-02-26T02:58:04;9.20;99.90
62154;DHT22;48140;45.486;9.226;2023-02-26T03:00:33;9.30;99.90
62154;DHT22;48140;45.486;9.226;2023-02-26T03:03:08;9.20;99.90
62154;DHT22;48140;45.486;9.226;2023-02-26T03:05:36;9.10;99.90
62154;DHT22;48140;45.486;9.226;2023-02-26T03:08:05;9.10;99.90
62154;DHT22;48140;45.486;9.226;2023-02-26T03:10:31;9.10;99.90
62154;DHT22;48140;45.486;9.226;2023-02-26T03:12:57;9.10;99.90
62154;DHT22;48140;45.486;9.226;2023-02-26T03:21:30;9.10;99.90
62154;DHT22;48140;45.486;9.226;2023-02-26T03:29:27;9.00;99.90
62154;DHT22;48140;45.486;9.226;2023-02-26T03:32:01;8.90;99.90
62154;DHT22;48140;45.486;9.226;2023-02-26T03:34:50;9.00;99.90
62154;DHT22;48140;45.486;9.226;2023-02-26T03:37:28;8.90;99.90
62154;DHT22;48140;45.486;9.226;2023-02-26T03:39:58;8.90;99.90
62154;DHT22;48140;45.486;9.226;2023-02-26T03:42:58;8.90;99.90
62154;DHT22;48140;45.486;9.226;2023-02-26T03:45:25;8.80;99.90
62154;DHT22;48140;45.486;9.226;2023-02-26T03:47:53;8.80;99.90
62154;DHT22;48140;45.486;9.226;2023-02-26T03:50:20;8.70;99.90
62154;DHT22;48140;45.486;9.226;2023-02-26T03:52:48;8.70;99.90
62154;DHT22;48140;45.486;9.226;2023-02-26T03:55:28;8.70;99.90
62154;DHT22;48140;45.486;9.226;2023-02-26T03:57:56;8.70;99.90
62154;DHT22;48140;45.486;9.226;2023-02-26T04:00:22;8.70;99.40
62154;DHT22;48140;45.486;9.226;2023-02-26T04:05:38;8.60;96.90
62154;DHT22;48140;45.486;9.226;2023-02-26T04:08:06;8.60;95.60
62154;DHT22;48140;45.486;9.226;2023-02-26T04:10:57;8.60;95.50
62154;DHT22;48140;45.486;9.226;2023-02-26T04:13:24;8.50;95.70
62154;DHT22;48140;45.486;9.226;2023-02-26T04:15:50;8.50;95.80
62154;DHT22;48140;45.486;9.226;2023-02-26T04:18:16;8.40;96.60
62154;DHT22;48140;45.486;9.226;2023-02-26T04:20:41;8.40;97.10
62154;DHT22;48140;45.486;9.226;2023-02-26T04:23:07;8.40;97.50
62154;DHT22;48140;45.486;9.226;2023-02-26T04:25:32;8.30;97.90
62154;DHT22;48140;45.486;9.226;2023-02-26T04:27:58;8.20;98.50
62154;DHT22;48140;45.486;9.226;2023-02-26T04:30:24;8.20;99.10
62154;DHT22;48140;45.486;9.226;2023-02-26T04:32:50;8.10;99.90
62154;DHT22;48140;45.486;9.226;2023-02-26T04:35:15;8.10;99.90
62154;DHT22;48140;45.486;9.226;2023-02-26T04:37:41;8.20;99.90
62154;DHT22;48140;45.486;9.226;2023-02-26T04:40:07;8.20;99.90
62154;DHT22;48140;45.486;9.226;2023-02-26T04:42:33;8.20;99.90
62154;DHT22;48140;45.486;9.226;2023-02-26T04:44:58;8.20;99.90
62154;DHT22;48140;45.486;9.226;2023-02-26T04:47:24;8.30;99.90
62154;DHT22;48140;45.486;9.226;2023-02-26T04:49:50;8.30;99.90
62154;DHT22;48140;45.486;9.226;2023-02-26T04:52:15;8.30;99.90
62154;DHT22;48140;45.486;9.226;2023-02-26T04:54:41;8.40;99.90
62154;DHT22;48140;45.486;9.226;2023-02-26T04:57:06;8.40;99.90
62154;DHT22;48140;45.486;9.226;2023-02-26T04:59:32;8.40;99.90
62154;DHT22;48140;45.486;9.226;2023-02-26T05:01:58;8.50;99.90
62154;DHT22;48140;45.486;9.226;2023-02-26T05:04:24;8.50;99.90
62154;DHT22;48140;45.486;9.226;2023-02-26T05:06:50;8.50;99.90
62154;DHT22;48140;45.486;9.226;2023-02-26T05:09:16;8.60;99.90
62154;DHT22;48140;45.486;9.226;2023-02-26T05:11:44;8.60;99.90
62154;DHT22;48140;45.486;9.226;2023-02-26T05:14:09;8.60;99.90
62154;DHT22;48140;45.486;9.226;2023-02-26T05:16:35;8.70;99.90
62154;DHT22;48140;45.486;9.226;2023-02-26T05:19:00;8.60;99.90
62154;DHT22;48140;45.486;9.226;2023-02-26T05:21:26;8.60;99.90
62154;DHT22;48140;45.486;9.226;2023-02-26T05:23:52;8.50;99.90
62154;DHT22;48140;45.486;9.226;2023-02-26T05:26:17;8.50;99.90
62154;DHT22;48140;45.486;9.226;2023-02-26T05:28:43;8.40;99.90
62154;DHT22;48140;45.486;9.226;2023-02-26T05:31:11;8.30;99.90
62154;DHT22;48140;45.486;9.226;2023-02-26T05:33:37;8.30;99.90
62154;DHT22;48140;45.486;9.226;2023-02-26T05:36:03;8.20;99.90
62154;DHT22;48140;45.486;9.226;2023-02-26T05:38:29;8.20;99.90
62154;DHT22;48140;45.486;9.226;2023-02-26T05:40:57;8.20;99.90
62154;DHT22;48140;45.486;9.226;2023-02-26T05:43:25;8.20;99.90
62154;DHT22;48140;45.486;9.226;2023-02-26T05:45:51;8.10;99.90
62154;DHT22;48140;45.486;9.226;2023-02-26T05:48:17;8.10;99.90
62154;DHT22;48140;45.486;9.226;2023-02-26T05:50:42;7.90;99.00
62154;DHT22;48140;45.486;9.226;2023-02-26T05:53:08;7.70;98.70
62154;DHT22;48140;45.486;9.226;2023-02-26T05:55:34;7.70;98.50
62154;DHT22;48140;45.486;9.226;2023-02-26T05:58:00;7.80;98.40
62154;DHT22;48140;45.486;9.226;2023-02-26T06:00:25;7.80;98.30
62154;DHT22;48140;45.486;9.226;2023-02-26T06:02:51;7.80;97.50
62154;DHT22;48140;45.486;9.226;2023-02-26T06:05:17;7.80;98.00
62154;DHT22;48140;45.486;9.226;2023-02-26T06:07:43;7.80;97.70
62154;DHT22;48140;45.486;9.226;2023-02-26T06:10:09;7.80;97.00
62154;DHT22;48140;45.486;9.226;2023-02-26T06:12:36;7.70;97.10
62154;DHT22;48140;45.486;9.226;2023-02-26T06:15:02;7.60;96.80
62154;DHT22;48140;45.486;9.226;2023-02-26T06:17:28;7.50;97.10
62154;DHT22;48140;45.486;9.226;2023-02-26T06:19:53;7.60;96.60
62154;DHT22;48140;45.486;9.226;2023-02-26T06:22:19;7.60;97.20
62154;DHT22;48140;45.486;9.226;2023-02-26T06:24:45;7.70;97.30
62154;DHT22;48140;45.486;9.226;2023-02-26T06:27:10;7.70;97.30
62154;DHT22;48140;45.486;9.226;2023-02-26T06:32:11;7.70;98.30
62154;DHT22;48140;45.486;9.226;2023-02-26T06:34:37;7.50;97.50
62154;DHT22;48140;45.486;9.226;2023-02-26T06:37:03;7.50;98.30
62154;DHT22;48140;45.486;9.226;2023-02-26T06:39:29;8.00;98.50
62154;DHT22;48140;45.486;9.226;2023-02-26T06:41:55;7.30;98.20
62154;DHT22;48140;45.486;9.226;2023-02-26T06:44:20;7.20;98.30
62154;DHT22;48140;45.486;9.226;2023-02-26T06:46:46;7.00;99.30
62154;DHT22;48140;45.486;9.226;2023-02-26T06:51:48;7.00;99.90
62154;DHT22;48140;45.486;9.226;2023-02-26T06:54:38;7.00;99.90
62154;DHT22;48140;45.486;9.226;2023-02-26T06:57:14;7.00;99.90
62154;DHT22;48140;45.486;9.226;2023-02-26T07:00:05;7.00;99.90
62154;DHT22;48140;45.486;9.226;2023-02-26T07:02:35;6.90;99.90
62154;DHT22;48140;45.486;9.226;2023-02-26T07:05:01;8.00;99.90
62154;DHT22;48140;45.486;9.226;2023-02-26T07:07:26;7.60;99.90
62154;DHT22;48140;45.486;9.226;2023-02-26T07:09:52;7.10;99.90
62154;DHT22;48140;45.486;9.226;2023-02-26T07:12:18;7.00;99.90
62154;DHT22;48140;45.486;9.226;2023-02-26T07:14:43;7.00;99.90
62154;DHT22;48140;45.486;9.226;2023-02-26T07:17:24;7.40;99.90
62154;DHT22;48140;45.486;9.226;2023-02-26T07:19:57;8.10;99.90
62154;DHT22;48140;45.486;9.226;2023-02-26T07:22:23;7.00;99.90
62154;DHT22;48140;45.486;9.226;2023-02-26T07:24:49;7.00;99.90
62154;DHT22;48140;45.486;9.226;2023-02-26T07:27:15;7.90;99.90
62154;DHT22;48140;45.486;9.226;2023-02-26T07:29:41;7.10;99.90
62154;DHT22;48140;45.486;9.226;2023-02-26T07:32:06;7.20;99.90
62154;DHT22;48140;45.486;9.226;2023-02-26T07:34:38;7.10;99.90
62154;DHT22;48140;45.486;9.226;2023-02-26T07:37:16;6.90;99.90
62154;DHT22;48140;45.486;9.226;2023-02-26T07:39:42;7.10;99.90
62154;DHT22;48140;45.486;9.226;2023-02-26T07:42:08;7.00;99.90
62154;DHT22;48140;45.486;9.226;2023-02-26T07:44:33;7.00;99.90
62154;DHT22;48140;45.486;9.226;2023-02-26T07:49:35;6.90;99.90
62154;DHT22;48140;45.486;9.226;2023-02-26T07:52:01;6.80;99.90
62154;DHT22;48140;45.486;9.226;2023-02-26T07:54:27;6.70;99.90
62154;DHT22;48140;45.486;9.226;2023-02-26T07:56:53;6.60;99.90
62154;DHT22;48140;45.486;9.226;2023-02-26T07:59:18;6.50;99.90
62154;DHT22;48140;45.486;9.226;2023-02-26T08:01:44;6.40;99.90
62154;DHT22;48140;45.486;9.226;2023-02-26T08:04:10;6.30;99.90
62154;DHT22;48140;45.486;9.226;2023-02-26T08:06:35;6.30;99.90
62154;DHT22;48140;45.486;9.226;2023-02-26T08:09:02;6.40;99.90
62154;DHT22;48140;45.486;9.226;2023-02-26T08:11:28;6.30;99.90
62154;DHT22;48140;45.486;9.226;2023-02-26T08:13:53;6.30;99.90
62154;DHT22;48140;45.486;9.226;2023-02-26T08:16:19;6.40;99.90
62154;DHT22;48140;45.486;9.226;2023-02-26T08:18:45;6.60;99.90
62154;DHT22;48140;45.486;9.226;2023-02-26T08:21:11;6.60;99.90
62154;DHT22;48140;45.486;9.226;2023-02-26T08:23:37;6.60;99.90
62154;DHT22;48140;45.486;9.226;2023-02-26T08:26:10;6.60;99.90
62154;DHT22;48140;45.486;9.226;2023-02-26T08:28:39;6.60;99.90
62154;DHT22;48140;45.486;9.226;2023-02-26T08:31:05;6.50;99.90
62154;DHT22;48140;45.486;9.226;2023-02-26T08:33:32;6.50;99.90
62154;DHT22;48140;45.486;9.226;2023-02-26T08:35:58;6.60;99.90
62154;DHT22;48140;45.486;9.226;2023-02-26T08:38:27;6.60;99.90
62154;DHT22;48140;45.486;9.226;2023-02-26T08:40:52;6.70;99.90
62154;DHT22;48140;45.486;9.226;2023-02-26T08:43:19;6.70;99.90
62154;DHT22;48140;45.486;9.226;2023-02-26T08:45:46;6.80;99.90
62154;DHT22;48140;45.486;9.226;2023-02-26T08:48:12;6.90;99.90
62154;DHT22;48140;45.486;9.226;2023-02-26T08:50:39;7.00;99.90
62154;DHT22;48140;45.486;9.226;2023-02-26T08:53:05;7.10;99.90
62154;DHT22;48140;45.486;9.226;2023-02-26T08:55:31;7.10;99.90
62154;DHT22;48140;45.486;9.226;2023-02-26T08:57:59;7.10;99.90
62154;DHT22;48140;45.486;9.226;2023-02-26T09:00:24;7.30;99.90
62154;DHT22;48140;45.486;9.226;2023-02-26T09:02:50;7.30;99.90
62154;DHT22;48140;45.486;9.226;2023-02-26T09:05:17;7.30;99.90
62154;DHT22;48140;45.486;9.226;2023-02-26T09:07:43;7.20;99.00
62154;DHT22;48140;45.486;9.226;2023-02-26T09:10:10;7.30;99.90
62154;DHT22;48140;45.486;9.226;2023-02-26T09:12:36;7.20;99.60
62154;DHT22;48140;45.486;9.226;2023-02-26T09:15:03;7.30;99.50
62154;DHT22;48140;45.486;9.226;2023-02-26T09:17:30;7.30;99.40
62154;DHT22;48140;45.486;9.226;2023-02-26T09:19:56;7.30;98.80
62154;DHT22;48140;45.486;9.226;2023-02-26T09:22:21;7.20;99.20
62154;DHT22;48140;45.486;9.226;2023-02-26T09:24:47;7.10;99.60
62154;DHT22;48140;45.486;9.226;2023-02-26T09:27:12;6.90;98.70
62154;DHT22;48140;45.486;9.226;2023-02-26T09:29:38;6.90;99.00
62154;DHT22;48140;45.486;9.226;2023-02-26T09:32:04;6.90;99.20
62154;DHT22;48140;45.486;9.226;2023-02-26T09:34:33;6.90;99.30
62154;DHT22;48140;45.486;9.226;2023-02-26T09:36:59;6.90;99.30
62154;DHT22;48140;45.486;9.226;2023-02-26T09:39:25;7.00;99.80
62154;DHT22;48140;45.486;9.226;2023-02-26T09:41:53;6.60;98.40
62154;DHT22;48140;45.486;9.226;2023-02-26T09:44:29;6.50;98.40
62154;DHT22;48140;45.486;9.226;2023-02-26T09:52:26;6.50;99.90
62154;DHT22;48140;45.486;9.226;2023-02-26T09:55:00;6.60;98.80
62154;DHT22;48140;45.486;9.226;2023-02-26T09:59:55;6.60;98.80
62154;DHT22;48140;45.486;9.226;2023-02-26T10:02:33;6.70;98.80
62154;DHT22;48140;45.486;9.226;2023-02-26T10:10:28;6.70;99.60
62154;DHT22;48140;45.486;9.226;2023-02-26T10:12:57;6.70;99.40
62154;DHT22;48140;45.486;9.226;2023-02-26T10:15:40;6.50;98.90
62154;DHT22;48140;45.486;9.226;2023-02-26T10:18:17;6.50;98.50
62154;DHT22;48140;45.486;9.226;2023-02-26T10:21:06;6.60;99.90
62154;DHT22;48140;45.486;9.226;2023-02-26T10:23:47;6.70;99.00
62154;DHT22;48140;45.486;9.226;2023-02-26T10:26:37;6.70;98.80
62154;DHT22;48140;45.486;9.226;2023-02-26T10:34:37;6.60;98.50
62154;DHT22;48140;45.486;9.226;2023-02-26T10:45:53;6.40;98.70
62154;DHT22;48140;45.486;9.226;2023-02-26T10:48:51;6.30;99.30
62154;DHT22;48140;45.486;9.226;2023-02-26T10:51:23;6.50;99.20
62154;DHT22;48140;45.486;9.226;2023-02-26T10:54:00;6.50;99.00
62154;DHT22;48140;45.486;9.226;2023-02-26T10:56:32;6.60;99.00
62154;DHT22;48140;45.486;9.226;2023-02-26T10:58:59;6.60;99.80
62154;DHT22;48140;45.486;9.226;2023-02-26T11:01:27;6.70;98.50
62154;DHT22;48140;45.486;9.226;2023-02-26T11:04:13;6.70;97.60
62154;DHT22;48140;45.486;9.226;2023-02-26T11:06:52;6.60;97.30
62154;DHT22;48140;45.486;9.226;2023-02-26T11:09:39;7.60;97.70
62154;DHT22;48140;45.486;9.226;2023-02-26T11:12:15;7.00;98.50
62154;DHT22;48140;45.486;9.226;2023-02-26T11:14:43;6.80;97.50
62154;DHT22;48140;45.486;9.226;2023-02-26T11:17:25;7.30;97.20
62154;DHT22;48140;45.486;9.226;2023-02-26T11:20:14;6.80;96.20
62154;DHT22;48140;45.486;9.226;2023-02-26T11:22:48;6.70;95.40
62154;DHT22;48140;45.486;9.226;2023-02-26T11:25:17;6.70;94.30
62154;DHT22;48140;45.486;9.226;2023-02-26T11:27:44;6.80;95.30
62154;DHT22;48140;45.486;9.226;2023-02-26T11:30:21;6.90;94.20
62154;DHT22;48140;45.486;9.226;2023-02-26T11:32:54;7.10;94.70
62154;DHT22;48140;45.486;9.226;2023-02-26T11:35:28;7.10;95.80
62154;DHT22;48140;45.486;9.226;2023-02-26T11:37:58;7.10;92.70
62154;DHT22;48140;45.486;9.226;2023-02-26T11:40:36;7.10;92.20
62154;DHT22;48140;45.486;9.226;2023-02-26T11:43:19;7.20;91.70
62154;DHT22;48140;45.486;9.226;2023-02-26T11:45:51;7.20;91.00
62154;DHT22;48140;45.486;9.226;2023-02-26T11:48:23;7.50;90.30
62154;DHT22;48140;45.486;9.226;2023-02-26T11:50:51;7.10;92.00
62154;DHT22;48140;45.486;9.226;2023-02-26T11:53:46;6.70;94.60
62154;DHT22;48140;45.486;9.226;2023-02-26T11:56:26;6.30;96.30
62154;DHT22;48140;45.486;9.226;2023-02-26T11:59:07;5.90;97.60
62154;DHT22;48140;45.486;9.226;2023-02-26T12:01:35;5.80;99.60
62154;DHT22;48140;45.486;9.226;2023-02-26T12:04:02;5.60;99.10
62154;DHT22;48140;45.486;9.226;2023-02-26T12:06:28;5.40;99.90
62154;DHT22;48140;45.486;9.226;2023-02-26T12:08:54;5.30;99.90
62154;DHT22;48140;45.486;9.226;2023-02-26T12:17:11;5.20;99.90
62154;DHT22;48140;45.486;9.226;2023-02-26T12:27:54;4.90;99.90
62154;DHT22;48140;45.486;9.226;2023-02-26T12:30:38;4.80;99.90
62154;DHT22;48140;45.486;9.226;2023-02-26T12:38:51;4.90;99.90
62154;DHT22;48140;45.486;9.226;2023-02-26T12:43:53;4.90;99.90
62154;DHT22;48140;45.486;9.226;2023-02-26T12:46:40;5.00;99.90
62154;DHT22;48140;45.486;9.226;2023-02-26T12:49:16;5.10;99.90
62154;DHT22;48140;45.486;9.226;2023-02-26T12:52:03;5.00;99.90
62154;DHT22;48140;45.486;9.226;2023-02-26T13:03:03;5.40;98.90
62154;DHT22;48140;45.486;9.226;2023-02-26T13:09:04;5.50;99.00
62154;DHT22;48140;45.486;9.226;2023-02-26T13:15:27;5.50;98.60
62154;DHT22;48140;45.486;9.226;2023-02-26T13:17:45;5.50;98.50
62154;DHT22;48140;45.486;9.226;2023-02-26T13:20:18;5.50;98.80
62154;DHT22;48140;45.486;9.226;2023-02-26T13:22:50;5.60;98.40
62154;DHT22;48140;45.486;9.226;2023-02-26T13:25:46;5.60;98.10
62154;DHT22;48140;45.486;9.226;2023-02-26T13:28:42;5.70;97.80
62154;DHT22;48140;45.486;9.226;2023-02-26T13:33:55;5.90;97.40
62154;DHT22;48140;45.486;9.226;2023-02-26T13:36:24;6.00;97.30
62154;DHT22;48140;45.486;9.226;2023-02-26T13:41:56;6.00;96.90
62154;DHT22;48140;45.486;9.226;2023-02-26T13:44:40;6.10;96.70
62154;DHT22;48140;45.486;9.226;2023-02-26T13:47:23;6.20;96.70
62154;DHT22;48140;45.486;9.226;2023-02-26T13:52:56;6.40;95.90
62154;DHT22;48140;45.486;9.226;2023-02-26T13:55:44;6.30;95.60
62154;DHT22;48140;45.486;9.226;2023-02-26T14:01:18;6.40;95.80
62154;DHT22;48140;45.486;9.226;2023-02-26T14:04:03;6.50;95.60
62154;DHT22;48140;45.486;9.226;2023-02-26T14:06:44;6.60;95.00
62154;DHT22;48140;45.486;9.226;2023-02-26T14:12:21;6.70;94.40
62154;DHT22;48140;45.486;9.226;2023-02-26T14:20:28;6.70;94.20
62154;DHT22;48140;45.486;9.226;2023-02-26T14:25:39;7.00;94.30
62154;DHT22;48140;45.486;9.226;2023-02-26T14:36:20;7.00;93.30
62154;DHT22;48140;45.486;9.226;2023-02-26T14:38:51;6.90;93.00
62154;DHT22;48140;45.486;9.226;2023-02-26T14:41:33;7.00;93.20
62154;DHT22;48140;45.486;9.226;2023-02-26T14:46:33;7.00;93.00
62154;DHT22;48140;45.486;9.226;2023-02-26T14:48:59;7.20;92.00
62154;DHT22;48140;45.486;9.226;2023-02-26T15:19:10;7.50;89.50
62154;DHT22;48140;45.486;9.226;2023-02-26T15:24:32;7.40;90.60
62154;DHT22;48140;45.486;9.226;2023-02-26T15:27:01;7.40;89.20
62154;DHT22;48140;45.486;9.226;2023-02-26T15:29:34;7.30;88.90
62154;DHT22;48140;45.486;9.226;2023-02-26T15:32:06;7.20;90.00
62154;DHT22;48140;45.486;9.226;2023-02-26T15:34:45;7.20;90.50
62154;DHT22;48140;45.486;9.226;2023-02-26T15:37:21;7.20;90.90
62154;DHT22;48140;45.486;9.226;2023-02-26T15:39:48;7.20;90.90
62154;DHT22;48140;45.486;9.226;2023-02-26T15:42:15;7.10;92.30
62154;DHT22;48140;45.486;9.226;2023-02-26T15:44:41;7.10;92.10
62154;DHT22;48140;45.486;9.226;2023-02-26T15:47:08;6.90;93.00
62154;DHT22;48140;45.486;9.226;2023-02-26T15:49:38;6.40;95.40
62154;DHT22;48140;45.486;9.226;2023-02-26T15:52:07;6.40;96.20
62154;DHT22;48140;45.486;9.226;2023-02-26T15:54:56;6.20;97.60
62154;DHT22;48140;45.486;9.226;2023-02-26T15:57:22;6.20;97.90
62154;DHT22;48140;45.486;9.226;2023-02-26T15:59:51;6.00;98.30
62154;DHT22;48140;45.486;9.226;2023-02-26T16:02:21;6.00;98.50
62154;DHT22;48140;45.486;9.226;2023-02-26T16:04:47;5.90;98.70
62154;DHT22;48140;45.486;9.226;2023-02-26T16:07:13;6.00;99.00
62154;DHT22;48140;45.486;9.226;2023-02-26T16:09:45;5.90;98.70
62154;DHT22;48140;45.486;9.226;2023-02-26T16:12:19;5.90;98.90
62154;DHT22;48140;45.486;9.226;2023-02-26T16:14:50;5.90;99.70
62154;DHT22;48140;45.486;9.226;2023-02-26T16:17:48;5.90;99.90
62154;DHT22;48140;45.486;9.226;2023-02-26T16:20:20;6.00;99.80
62154;DHT22;48140;45.486;9.226;2023-02-26T16:22:52;5.90;99.50
62154;DHT22;48140;45.486;9.226;2023-02-26T16:25:27;5.90;99.20
62154;DHT22;48140;45.486;9.226;2023-02-26T16:28:00;5.90;99.60
62154;DHT22;48140;45.486;9.226;2023-02-26T16:30:31;5.90;99.70
62154;DHT22;48140;45.486;9.226;2023-02-26T16:32:58;6.00;98.30
62154;DHT22;48140;45.486;9.226;2023-02-26T16:35:31;6.10;98.80
62154;DHT22;48140;45.486;9.226;2023-02-26T16:37:59;6.10;98.40
62154;DHT22;48140;45.486;9.226;2023-02-26T16:40:34;6.10;98.70
62154;DHT22;48140;45.486;9.226;2023-02-26T16:43:04;6.00;98.50
62154;DHT22;48140;45.486;9.226;2023-02-26T16:50:58;5.90;97.60
62154;DHT22;48140;45.486;9.226;2023-02-26T16:53:32;5.90;98.20
62154;DHT22;48140;45.486;9.226;2023-02-26T16:55:58;5.90;98.20
62154;DHT22;48140;45.486;9.226;2023-02-26T16:58:25;5.90;98.30
62154;DHT22;48140;45.486;9.226;2023-02-26T17:01:05;5.80;98.20
62154;DHT22;48140;45.486;9.226;2023-02-26T17:03:32;5.80;98.20
62154;DHT22;48140;45.486;9.226;2023-02-26T17:06:12;5.80;98.00
62154;DHT22;48140;45.486;9.226;2023-02-26T17:08:49;5.80;97.90
62154;DHT22;48140;45.486;9.226;2023-02-26T17:11:28;5.80;97.10
62154;DHT22;48140;45.486;9.226;2023-02-26T17:14:20;5.80;97.40
62154;DHT22;48140;45.486;9.226;2023-02-26T17:16:48;5.80;97.40
62154;DHT22;48140;45.486;9.226;2023-02-26T17:19:15;5.80;97.80
62154;DHT22;48140;45.486;9.226;2023-02-26T17:21:43;5.80;98.50
62154;DHT22;48140;45.486;9.226;2023-02-26T17:24:19;5.80;97.70
62154;DHT22;48140;45.486;9.226;2023-02-26T17:26:46;5.80;97.90
62154;DHT22;48140;45.486;9.226;2023-02-26T17:29:32;6.00;99.60
62154;DHT22;48140;45.486;9.226;2023-02-26T17:31:58;6.00;97.80
62154;DHT22;48140;45.486;9.226;2023-02-26T17:34:24;6.00;98.00
62154;DHT22;48140;45.486;9.226;2023-02-26T17:36:49;5.90;97.30
62154;DHT22;48140;45.486;9.226;2023-02-26T17:39:15;5.90;97.60
62154;DHT22;48140;45.486;9.226;2023-02-26T17:41:44;5.90;98.10
62154;DHT22;48140;45.486;9.226;2023-02-26T17:44:10;5.70;98.60
62154;DHT22;48140;45.486;9.226;2023-02-26T17:46:36;5.70;99.10
62154;DHT22;48140;45.486;9.226;2023-02-26T17:49:02;5.60;99.10
62154;DHT22;48140;45.486;9.226;2023-02-26T17:51:28;5.50;99.80
62154;DHT22;48140;45.486;9.226;2023-02-26T17:53:54;5.40;99.90
62154;DHT22;48140;45.486;9.226;2023-02-26T17:56:28;5.40;99.90
62154;DHT22;48140;45.486;9.226;2023-02-26T17:58:55;5.40;99.90
62154;DHT22;48140;45.486;9.226;2023-02-26T18:01:21;5.50;99.90
62154;DHT22;48140;45.486;9.226;2023-02-26T18:03:52;5.40;99.90
62154;DHT22;48140;45.486;9.226;2023-02-26T18:06:19;5.40;99.90
62154;DHT22;48140;45.486;9.226;2023-02-26T18:08:45;5.40;99.90
62154;DHT22;48140;45.486;9.226;2023-02-26T18:11:13;5.40;99.90
62154;DHT22;48140;45.486;9.226;2023-02-26T18:13:40;5.40;99.90
62154;DHT22;48140;45.486;9.226;2023-02-26T18:16:08;5.40;99.90
62154;DHT22;48140;45.486;9.226;2023-02-26T18:18:36;5.40;99.90
62154;DHT22;48140;45.486;9.226;2023-02-26T18:21:03;5.40;99.90
62154;DHT22;48140;45.486;9.226;2023-02-26T18:23:30;5.40;99.90
62154;DHT22;48140;45.486;9.226;2023-02-26T18:25:55;5.40;99.90
62154;DHT22;48140;45.486;9.226;2023-02-26T18:28:26;5.30;99.90
62154;DHT22;48140;45.486;9.226;2023-02-26T18:30:53;5.30;99.90
62154;DHT22;48140;45.486;9.226;2023-02-26T18:33:20;5.30;99.90
62154;DHT22;48140;45.486;9.226;2023-02-26T18:35:49;5.30;99.90
62154;DHT22;48140;45.486;9.226;2023-02-26T18:38:19;5.30;99.90
62154;DHT22;48140;45.486;9.226;2023-02-26T18:40:46;5.40;99.90
62154;DHT22;48140;45.486;9.226;2023-02-26T18:43:12;5.40;99.90
62154;DHT22;48140;45.486;9.226;2023-02-26T18:45:39;5.50;99.90
62154;DHT22;48140;45.486;9.226;2023-02-26T18:48:05;5.50;99.90
62154;DHT22;48140;45.486;9.226;2023-02-26T18:50:31;5.50;99.90
62154;DHT22;48140;45.486;9.226;2023-02-26T18:52:57;5.50;99.90
62154;DHT22;48140;45.486;9.226;2023-02-26T18:55:22;5.60;99.90
62154;DHT22;48140;45.486;9.226;2023-02-26T18:57:48;5.50;99.90
62154;DHT22;48140;45.486;9.226;2023-02-26T19:00:14;5.50;99.90
62154;DHT22;48140;45.486;9.226;2023-02-26T19:02:41;5.50;99.90
62154;DHT22;48140;45.486;9.226;2023-02-26T19:05:08;5.40;99.90
62154;DHT22;48140;45.486;9.226;2023-02-26T19:07:35;5.20;99.90
62154;DHT22;48140;45.486;9.226;2023-02-26T19:10:01;5.20;99.90
62154;DHT22;48140;45.486;9.226;2023-02-26T19:12:27;5.20;99.90
62154;DHT22;48140;45.486;9.226;2023-02-26T19:14:53;5.30;99.90
62154;DHT22;48140;45.486;9.226;2023-02-26T19:17:19;5.20;99.90